Time;durP1;ratioP1;P1;durP2;ratioP2;P2;SDS_P1;SDS_P2;PMS_P1;PMS_P2;Temp;Humidity;BMP_temperature;BMP_pressure;BME280_temperature;BME280_humidity;BME280_pressure;Samples;Min_cycle;Max_cycle;Signal;HPM_P1;HPM_P2
2022/07/25 00:01:26;;;;;;;13.57;12.32;;;;;;;25.25;51.32;94993.53;5048795;28;20198;-66
2022/07/25 00:03:51;;;;;;;14.50;13.35;;;;;;;25.21;51.44;94989.72;5043596;28;20826;-66
2022/07/25 00:06:16;;;;;;;13.40;12.30;;;;;;;25.17;51.87;94985.88;5043512;28;20225;-66
2022/07/25 00:08:42;;;;;;;13.15;12.13;;;;;;;25.19;51.91;94994.53;5042755;28;20217;-66
2022/07/25 00:11:07;;;;;;;12.68;11.77;;;;;;;25.14;52.03;94991.72;5054739;28;20205;-66
2022/07/25 00:13:33;;;;;;;14.23;13.13;;;;;;;25.16;52.74;94995.03;5043366;28;20235;-66
2022/07/25 00:15:58;;;;;;;13.57;12.57;;;;;;;25.19;52.99;94992.66;5042916;28;20213;-66
2022/07/25 00:18:24;;;;;;;14.18;13.07;;;;;;;25.18;52.86;94993.72;5046929;28;20229;-66
2022/07/25 00:20:50;;;;;;;14.43;13.43;;;;;;;24.76;54.86;94987.84;5044189;28;20751;-66
2022/07/25 00:23:15;;;;;;;14.60;13.40;;;;;;;24.42;56.48;94985.00;5042181;28;20212;-66
2022/07/25 00:25:41;;;;;;;15.23;13.93;;;;;;;24.63;56.16;94979.00;5043485;28;20201;-65
2022/07/25 00:28:06;;;;;;;14.50;13.40;;;;;;;24.97;55.44;94976.38;5043139;28;20241;-67
2022/07/25 00:30:32;;;;;;;14.45;13.07;;;;;;;24.82;55.67;94974.22;5040179;28;20236;-65
2022/07/25 00:32:57;;;;;;;14.75;13.45;;;;;;;24.85;55.86;94975.63;5042852;28;20229;-65
2022/07/25 00:35:22;;;;;;;15.05;13.77;;;;;;;25.02;55.19;94970.25;5041274;28;20220;-65
2022/07/25 00:37:48;;;;;;;15.27;13.80;;;;;;;25.06;54.91;94958.78;5046238;28;20209;-65
2022/07/25 00:40:15;;;;;;;14.35;13.23;;;;;;;24.97;55.59;94952.16;5041159;28;20213;-65
2022/07/25 00:42:40;;;;;;;14.57;13.38;;;;;;;25.03;55.08;94956.56;5058491;28;20297;-65
2022/07/25 00:45:06;;;;;;;15.27;14.10;;;;;;;25.00;54.75;94961.63;5054945;28;20222;-65
2022/07/25 00:47:32;;;;;;;14.05;13.05;;;;;;;24.96;55.01;94957.78;5045150;28;20264;-65
2022/07/25 00:49:57;;;;;;;14.65;13.40;;;;;;;24.90;55.49;94958.75;5045942;28;20229;-65
2022/07/25 00:52:23;;;;;;;14.35;13.32;;;;;;;24.92;55.87;94954.78;5045281;28;20217;-65
2022/07/25 00:54:49;;;;;;;14.35;13.25;;;;;;;24.79;56.48;94958.56;5045170;28;20217;-65
2022/07/25 00:57:14;;;;;;;14.57;13.25;;;;;;;24.76;56.49;94967.13;5040997;28;20340;-66
2022/07/25 00:59:40;;;;;;;14.48;13.27;;;;;;;24.79;56.46;94957.75;5039831;28;20222;-66
2022/07/25 01:02:05;;;;;;;14.98;13.77;;;;;;;24.80;56.75;94970.13;5041572;28;20208;-66
2022/07/25 01:04:31;;;;;;;14.10;12.85;;;;;;;24.81;55.79;94966.41;5041084;28;20197;-66
2022/07/25 01:06:57;;;;;;;14.75;13.27;;;;;;;24.91;55.72;94971.94;5042584;28;20270;-66
2022/07/25 01:09:22;;;;;;;14.38;13.02;;;;;;;24.91;55.59;94965.75;5042601;28;20236;-66
2022/07/25 01:11:48;;;;;;;15.20;14.00;;;;;;;24.97;56.03;94965.63;5046135;28;20381;-66
2022/07/25 01:14:13;;;;;;;14.05;12.85;;;;;;;25.08;55.41;94970.09;5040892;28;20197;-66
2022/07/25 01:16:40;;;;;;;14.18;12.77;;;;;;;24.93;56.07;94963.66;5042091;28;20201;-66
2022/07/25 01:19:06;;;;;;;14.55;13.27;;;;;;;24.85;56.55;94970.22;5042298;28;20255;-66
2022/07/25 01:21:31;;;;;;;15.90;14.45;;;;;;;24.82;56.40;94960.78;5041707;28;20214;-66
2022/07/25 01:23:57;;;;;;;14.80;13.60;;;;;;;24.86;56.04;94970.00;5041191;28;20225;-67
2022/07/25 01:26:22;;;;;;;14.07;13.07;;;;;;;24.84;56.36;94955.16;5041962;28;20217;-66
2022/07/25 01:28:47;;;;;;;14.55;13.52;;;;;;;24.85;55.45;94962.97;5044146;28;20221;-66
2022/07/25 01:31:13;;;;;;;13.82;12.88;;;;;;;24.68;55.23;94954.06;5044976;28;20253;-66
2022/07/25 01:33:38;;;;;;;15.30;13.82;;;;;;;24.50;55.51;94956.97;5041230;28;20234;-66
2022/07/25 01:36:04;;;;;;;14.63;13.52;;;;;;;24.68;54.77;94959.47;5041859;28;20225;-66
2022/07/25 01:38:30;;;;;;;14.82;13.48;;;;;;;24.78;54.35;94958.81;5025485;28;20224;-66
2022/07/25 01:40:55;;;;;;;14.45;13.15;;;;;;;24.79;53.94;94961.25;5041833;28;20281;-66
2022/07/25 01:43:21;;;;;;;14.10;13.07;;;;;;;24.87;53.57;94952.00;5044741;28;20282;-66
2022/07/25 01:45:46;;;;;;;15.63;14.25;;;;;;;24.93;53.69;94961.78;5040678;28;20783;-65
2022/07/25 01:48:12;;;;;;;13.95;12.95;;;;;;;24.98;53.42;94969.94;5042891;28;20280;-65
2022/07/25 01:50:37;;;;;;;14.88;13.60;;;;;;;24.95;53.15;94967.72;5045117;28;20228;-66
2022/07/25 01:53:04;;;;;;;14.98;13.70;;;;;;;24.81;54.68;94969.09;5042002;28;20209;-65
2022/07/25 01:55:29;;;;;;;14.20;13.20;;;;;;;24.80;55.73;94965.56;5043096;28;20240;-65
2022/07/25 01:57:55;;;;;;;15.40;14.18;;;;;;;24.74;56.23;94971.13;5040217;28;20221;-65
2022/07/25 02:00:20;;;;;;;15.43;14.18;;;;;;;24.73;56.10;94973.00;5041697;28;20324;-66
2022/07/25 02:02:46;;;;;;;15.27;13.98;;;;;;;24.76;56.23;94967.13;5045487;28;20225;-65
2022/07/25 02:05:13;;;;;;;15.60;14.30;;;;;;;24.75;56.15;94972.75;5043295;28;20205;-66
2022/07/25 02:07:38;;;;;;;15.40;14.00;;;;;;;24.74;56.03;94977.31;5046630;28;20205;-66
2022/07/25 02:10:05;;;;;;;15.48;14.25;;;;;;;24.69;55.94;94971.03;5042509;28;20229;-66
2022/07/25 02:12:31;;;;;;;14.70;13.68;;;;;;;24.71;55.58;94971.59;5045702;28;20217;-65
2022/07/25 02:14:56;;;;;;;15.40;14.20;;;;;;;24.58;55.64;94967.31;5042982;28;20270;-66
2022/07/25 02:17:22;;;;;;;15.25;14.05;;;;;;;24.49;55.97;94969.59;5047561;28;20221;-66
2022/07/25 02:19:48;;;;;;;14.15;12.95;;;;;;;24.47;56.17;94970.88;5051140;28;20193;-66
2022/07/25 02:22:13;;;;;;;14.60;13.48;;;;;;;24.45;55.95;94973.81;5048362;28;20224;-65
2022/07/25 02:24:40;;;;;;;15.10;13.98;;;;;;;24.45;56.15;94965.75;5048110;28;20292;-66
2022/07/25 02:27:05;;;;;;;14.32;13.32;;;;;;;24.42;56.45;94968.88;5047986;28;20244;-66
2022/07/25 02:29:32;;;;;;;15.95;14.45;;;;;;;24.46;55.67;94963.84;5044673;28;20221;-65
2022/07/25 02:31:58;;;;;;;14.90;13.73;;;;;;;24.38;56.38;94973.91;5044626;28;20262;-66
2022/07/25 02:34:23;;;;;;;14.80;13.60;;;;;;;24.27;57.01;94973.94;5047109;28;20213;-66
2022/07/25 02:36:49;;;;;;;14.82;13.52;;;;;;;24.26;56.51;94967.75;5046483;28;20309;-66
2022/07/25 02:39:14;;;;;;;16.98;15.30;;;;;;;24.39;55.90;94964.78;5048171;28;20214;-65
2022/07/25 02:41:40;;;;;;;17.15;15.57;;;;;;;24.36;55.97;94959.09;5044258;28;20244;-65
2022/07/25 02:44:06;;;;;;;16.08;14.75;;;;;;;24.32;56.13;94958.72;5046478;28;20201;-66
2022/07/25 02:46:32;;;;;;;16.15;14.60;;;;;;;24.27;56.21;94958.66;5046172;28;20201;-66
2022/07/25 02:48:57;;;;;;;16.35;14.95;;;;;;;24.26;56.26;94959.69;5059510;28;20318;-66
2022/07/25 02:51:23;;;;;;;15.68;14.23;;;;;;;24.28;56.34;94960.28;5043850;28;20255;-66
2022/07/25 02:53:49;;;;;;;16.05;14.63;;;;;;;24.28;56.98;94962.16;5045698;28;20221;-65
2022/07/25 02:56:14;;;;;;;16.63;15.10;;;;;;;24.16;57.28;94964.84;5043866;28;20205;-65
2022/07/25 02:58:40;;;;;;;16.38;14.98;;;;;;;24.13;57.53;94971.53;5045929;28;20430;-66
2022/07/25 03:01:05;;;;;;;16.83;15.35;;;;;;;24.11;58.22;94965.59;5045345;28;20213;-65
2022/07/25 03:03:31;;;;;;;16.08;14.57;;;;;;;23.96;58.92;94962.59;5042112;28;20224;-65
2022/07/25 03:05:56;;;;;;;16.50;14.93;;;;;;;24.07;58.59;94961.75;5044550;28;20221;-66
2022/07/25 03:08:22;;;;;;;15.95;14.75;;;;;;;24.19;58.00;94967.06;5045564;28;20232;-65
2022/07/25 03:10:47;;;;;;;15.63;14.32;;;;;;;24.10;57.97;94965.81;5048182;28;20312;-66
2022/07/25 03:13:12;;;;;;;14.93;13.73;;;;;;;24.08;58.06;94968.72;5047902;28;20263;-65
2022/07/25 03:15:38;;;;;;;14.85;13.60;;;;;;;24.13;56.89;94966.16;5043667;28;20221;-66
2022/07/25 03:18:03;;;;;;;13.88;12.57;;;;;;;24.11;56.20;94968.28;5042078;28;20232;-65
2022/07/25 03:20:29;;;;;;;14.10;13.00;;;;;;;23.95;56.92;94966.31;5029416;28;20226;-65
2022/07/25 03:22:54;;;;;;;12.82;11.75;;;;;;;23.90;56.16;94966.22;5048145;28;20213;-65
2022/07/25 03:25:19;;;;;;;12.73;11.73;;;;;;;23.93;55.21;94961.19;5045402;28;20236;-66
2022/07/25 03:27:45;;;;;;;11.15;10.18;;;;;;;23.92;54.22;94966.78;5045698;28;20237;-66
2022/07/25 03:30:11;;;;;;;12.82;11.48;;;;;;;23.92;54.20;94970.31;5045537;28;20234;-65
2022/07/25 03:32:36;;;;;;;11.43;10.32;;;;;;;23.97;53.61;94969.56;5047840;28;20300;-65
2022/07/25 03:35:02;;;;;;;11.43;10.25;;;;;;;23.89;53.90;94969.94;5042336;28;20209;-66
2022/07/25 03:37:27;;;;;;;10.82;9.82;;;;;;;23.90;53.48;94964.34;5041893;28;20200;-66
2022/07/25 03:39:53;;;;;;;11.75;10.40;;;;;;;23.85;53.25;94964.25;5027066;28;21171;-66
2022/07/25 03:42:19;;;;;;;10.98;9.98;;;;;;;23.89;52.83;94959.19;5042740;28;20225;-65
2022/07/25 03:44:44;;;;;;;10.38;9.40;;;;;;;23.88;52.35;94960.25;5043605;28;20214;-65
2022/07/25 03:47:10;;;;;;;11.95;10.70;;;;;;;23.96;51.87;94966.09;5044899;28;20216;-66
2022/07/25 03:49:35;;;;;;;10.55;9.75;;;;;;;23.97;51.38;94972.25;5044522;28;20210;-65
2022/07/25 03:52:01;;;;;;;10.70;9.90;;;;;;;23.97;51.64;94966.88;5044117;28;20213;-65
2022/07/25 03:54:26;;;;;;;10.30;9.25;;;;;;;24.02;51.38;94980.44;5044295;28;20228;-65
2022/07/25 03:56:52;;;;;;;10.20;9.32;;;;;;;23.91;51.57;94978.59;5042732;28;20240;-65
2022/07/25 03:59:19;;;;;;;10.05;9.15;;;;;;;23.99;51.00;94980.91;5043070;28;20340;-66
2022/07/25 04:01:46;;;;;;;9.73;8.77;;;;;;;23.98;51.00;94980.09;5043902;28;20212;-65
2022/07/25 04:04:12;;;;;;;9.77;9.00;;;;;;;23.99;50.84;94989.78;5046886;28;20217;-66
2022/07/25 04:06:39;;;;;;;11.38;10.38;;;;;;;23.90;50.83;94977.78;5043470;28;20641;-66
2022/07/25 04:09:05;;;;;;;12.77;10.00;;;;;;;23.92;50.43;94980.22;5040293;28;20241;-65
2022/07/25 04:11:31;;;;;;;10.15;9.23;;;;;;;23.98;50.27;94976.59;5044642;28;20345;-66
2022/07/25 04:13:57;;;;;;;10.25;9.23;;;;;;;24.03;50.47;94982.09;5047405;28;20306;-67
2022/07/25 04:16:23;;;;;;;9.82;8.82;;;;;;;23.92;50.59;94977.53;5041960;28;20217;-67
2022/07/25 04:18:49;;;;;;;10.35;9.40;;;;;;;24.07;50.17;94971.66;5041007;28;20221;-67
2022/07/25 04:21:15;;;;;;;9.85;9.05;;;;;;;24.08;50.11;94975.97;5043105;28;20237;-65
2022/07/25 04:23:41;;;;;;;11.73;10.73;;;;;;;24.14;50.13;94973.19;5044793;28;20544;-64
2022/07/25 04:26:06;;;;;;;10.18;9.18;;;;;;;24.22;49.89;94974.69;5046512;28;20254;-63
2022/07/25 04:28:32;;;;;;;10.05;9.10;;;;;;;24.10;49.29;94965.81;5042994;28;20512;-64
2022/07/25 04:30:58;;;;;;;9.48;8.68;;;;;;;24.19;49.83;94972.44;5039422;28;20484;-64
2022/07/25 04:33:24;;;;;;;9.00;8.30;;;;;;;24.26;49.35;94967.75;5042938;28;20240;-64
2022/07/25 04:35:49;;;;;;;9.15;8.20;;;;;;;24.20;48.86;94968.72;5041884;28;20247;-64
2022/07/25 04:38:15;;;;;;;9.88;8.70;;;;;;;24.26;49.30;94970.44;5045774;28;20205;-65
2022/07/25 04:40:41;;;;;;;9.70;8.82;;;;;;;24.40;48.59;94970.97;5047058;28;20288;-64
2022/07/25 04:43:07;;;;;;;8.88;8.18;;;;;;;24.31;48.50;94973.25;5058663;28;20228;-62
2022/07/25 04:45:33;;;;;;;9.32;8.38;;;;;;;24.40;48.13;94977.19;5040852;28;20499;-63
2022/07/25 04:47:59;;;;;;;9.32;8.43;;;;;;;24.46;48.25;94970.06;5056803;28;20222;-63
2022/07/25 04:50:25;;;;;;;8.60;8.00;;;;;;;24.49;48.01;94974.16;5042122;28;20221;-63
2022/07/25 04:52:50;;;;;;;9.48;7.65;;;;;;;24.48;47.71;94970.63;5042228;28;20205;-62
2022/07/25 04:55:16;;;;;;;8.98;8.27;;;;;;;24.37;47.43;94964.22;5040359;28;20226;-63
2022/07/25 04:57:41;;;;;;;8.55;7.95;;;;;;;24.42;47.61;94972.38;5041094;28;20221;-64
2022/07/25 05:00:09;;;;;;;8.30;7.70;;;;;;;24.47;47.14;94968.19;5041827;28;20225;-64
2022/07/25 05:02:35;;;;;;;8.57;7.80;;;;;;;24.46;47.57;94971.91;5038875;28;20221;-64
2022/07/25 05:05:01;;;;;;;10.35;8.00;;;;;;;24.50;47.16;94968.53;5038388;28;20263;-63
2022/07/25 05:07:27;;;;;;;9.90;7.75;;;;;;;24.45;47.38;94970.31;5054867;28;20327;-63
2022/07/25 05:09:53;;;;;;;9.98;8.10;;;;;;;24.47;47.22;94968.19;5042406;28;20264;-63
2022/07/25 05:12:19;;;;;;;8.45;7.75;;;;;;;24.53;47.21;94980.66;5037586;28;20232;-65
2022/07/25 05:14:44;;;;;;;8.57;7.70;;;;;;;24.65;46.49;94981.44;5042801;28;20247;-64
2022/07/25 05:17:10;;;;;;;8.43;7.60;;;;;;;24.78;46.48;94980.31;5042240;28;20193;-65
2022/07/25 05:19:36;;;;;;;8.73;7.75;;;;;;;24.82;45.91;94986.84;5042113;28;20203;-65
2022/07/25 05:22:02;;;;;;;8.88;8.20;;;;;;;24.89;45.91;94992.09;5041242;28;20222;-64
2022/07/25 05:24:27;;;;;;;8.25;7.60;;;;;;;24.81;45.99;94987.94;5038834;28;20222;-63
2022/07/25 05:26:53;;;;;;;8.57;7.65;;;;;;;24.86;45.80;94982.66;5038480;28;20236;-64
2022/07/25 05:29:18;;;;;;;8.30;7.50;;;;;;;24.93;45.30;94988.66;5038472;28;20241;-64
2022/07/25 05:31:44;;;;;;;8.95;8.10;;;;;;;24.95;45.28;94994.63;5046206;28;20208;-64
2022/07/25 05:34:10;;;;;;;8.13;7.53;;;;;;;25.00;45.22;94986.66;5042986;28;20221;-64
2022/07/25 05:36:35;;;;;;;8.30;7.70;;;;;;;24.96;45.04;94990.88;5042126;28;20255;-65
2022/07/25 05:39:01;;;;;;;8.45;7.70;;;;;;;24.92;45.49;94988.94;5039138;28;20230;-64
2022/07/25 05:41:26;;;;;;;13.05;7.63;;;;;;;25.10;45.40;94991.41;5041295;28;20278;-64
2022/07/25 05:43:52;;;;;;;8.15;7.35;;;;;;;25.07;45.00;94979.25;5038455;28;20277;-63
2022/07/25 05:46:17;;;;;;;8.73;7.82;;;;;;;25.17;45.19;94980.50;5038537;28;20244;-63
2022/07/25 05:48:43;;;;;;;9.52;7.82;;;;;;;25.24;45.17;94986.53;5044156;28;20229;-63
2022/07/25 05:51:09;;;;;;;8.60;7.70;;;;;;;25.19;45.03;94979.19;5042254;28;20221;-63
2022/07/25 05:53:35;;;;;;;8.00;7.28;;;;;;;25.14;45.14;94981.78;5038064;28;20261;-64
2022/07/25 05:56:01;;;;;;;8.35;7.65;;;;;;;25.21;45.40;94976.28;5053863;28;20209;-63
2022/07/25 05:58:26;;;;;;;8.00;7.30;;;;;;;25.30;45.04;94969.41;5040012;28;20210;-63
2022/07/25 06:00:52;;;;;;;8.23;7.57;;;;;;;25.44;45.04;94973.38;5023040;28;20213;-64
2022/07/25 06:03:18;;;;;;;9.02;8.23;;;;;;;25.43;44.60;94968.28;5038602;28;20217;-64
2022/07/25 06:05:45;;;;;;;8.80;8.00;;;;;;;25.47;44.35;94970.22;5056447;28;20226;-65
2022/07/25 06:08:11;;;;;;;8.60;7.80;;;;;;;25.43;44.52;94969.09;5043480;28;20212;-62
2022/07/25 06:10:36;;;;;;;8.43;7.65;;;;;;;25.46;44.14;94963.19;5041851;28;20208;-62
2022/07/25 06:13:02;;;;;;;8.88;7.78;;;;;;;25.46;44.34;94963.19;5037378;28;20221;-62
2022/07/25 06:15:27;;;;;;;9.00;8.10;;;;;;;25.40;44.64;94969.56;5054259;28;20229;-62
2022/07/25 06:17:53;;;;;;;8.73;7.90;;;;;;;25.44;44.24;94962.63;5036831;28;20279;-63
2022/07/25 06:20:19;;;;;;;8.80;7.93;;;;;;;25.48;43.97;94966.47;5031594;28;20306;-62
2022/07/25 06:22:44;;;;;;;8.98;8.13;;;;;;;25.52;43.77;94964.91;5037683;28;20205;-63
2022/07/25 06:25:10;;;;;;;9.73;8.82;;;;;;;25.57;43.80;94968.75;5017391;28;20240;-63
2022/07/25 06:27:36;;;;;;;9.05;8.35;;;;;;;25.73;43.50;94976.78;5016143;28;20253;-64
2022/07/25 06:30:04;;;;;;;9.93;8.93;;;;;;;25.69;43.92;94966.78;5015054;28;20234;-63
2022/07/25 06:32:29;;;;;;;9.40;8.60;;;;;;;25.69;43.97;94962.19;5015858;28;20241;-62
2022/07/25 06:34:55;;;;;;;8.88;7.97;;;;;;;25.66;43.91;94965.41;5045668;28;20194;-62
2022/07/25 06:37:20;;;;;;;8.82;8.02;;;;;;;25.74;43.57;94972.22;5034728;28;20305;-63
2022/07/25 06:39:45;;;;;;;8.13;7.50;;;;;;;25.76;43.48;94970.09;5020241;28;20222;-62
2022/07/25 06:42:11;;;;;;;8.93;7.95;;;;;;;25.81;43.51;94961.28;5015972;28;20210;-62
2022/07/25 06:44:36;;;;;;;8.07;7.32;;;;;;;25.73;43.79;94968.72;5048103;28;20321;-62
2022/07/25 06:47:02;;;;;;;8.13;7.45;;;;;;;25.85;43.46;94965.13;5015175;28;20695;-63
2022/07/25 06:49:28;;;;;;;9.23;7.95;;;;;;;25.95;42.84;94952.63;5019214;28;20218;-63
2022/07/25 06:51:53;;;;;;;9.32;8.57;;;;;;;25.93;42.95;94954.75;5051035;28;20277;-62
2022/07/25 06:54:19;;;;;;;8.40;7.57;;;;;;;25.89;42.95;94948.22;5026725;28;20225;-63
2022/07/25 06:56:44;;;;;;;7.93;7.32;;;;;;;26.02;42.74;94951.63;5034815;28;20218;-62
2022/07/25 06:59:10;;;;;;;8.30;7.57;;;;;;;25.92;42.43;94949.59;5021921;28;20216;-63
2022/07/25 07:01:36;;;;;;;9.05;8.25;;;;;;;25.94;43.08;94948.28;5060637;28;20202;-64
2022/07/25 07:04:01;;;;;;;8.65;7.85;;;;;;;26.20;42.31;94945.94;5026100;28;20218;-63
2022/07/25 07:06:27;;;;;;;8.02;7.43;;;;;;;26.21;42.67;94950.25;5023114;28;20225;-63
2022/07/25 07:08:52;;;;;;;8.68;7.97;;;;;;;26.24;42.68;94949.72;5057382;28;20230;-62
2022/07/25 07:11:18;;;;;;;10.23;9.43;;;;;;;26.22;41.97;94948.34;5022776;28;20247;-63
2022/07/25 07:13:43;;;;;;;9.38;8.57;;;;;;;26.24;42.27;94941.66;5024018;28;20289;-63
2022/07/25 07:16:09;;;;;;;8.95;8.25;;;;;;;26.38;42.02;94947.47;5026088;28;20226;-63
2022/07/25 07:18:35;;;;;;;8.93;8.05;;;;;;;26.33;41.67;94955.50;5027940;28;20230;-64
2022/07/25 07:21:01;;;;;;;8.50;7.70;;;;;;;26.40;41.80;94935.34;5031484;28;20225;-63
2022/07/25 07:23:27;;;;;;;8.95;8.25;;;;;;;26.43;42.00;94944.81;5039081;28;20222;-64
2022/07/25 07:25:52;;;;;;;8.50;7.80;;;;;;;26.55;42.07;94939.34;5024279;28;20203;-63
2022/07/25 07:28:18;;;;;;;9.18;8.40;;;;;;;26.66;40.93;94938.38;5016674;28;20238;-62
2022/07/25 07:30:44;;;;;;;9.65;8.68;;;;;;;26.65;40.49;94947.53;5036339;28;20354;-63
2022/07/25 07:33:10;;;;;;;8.77;8.07;;;;;;;26.61;40.61;94941.00;5037582;28;20254;-62
2022/07/25 07:35:35;;;;;;;9.23;8.43;;;;;;;26.71;40.67;94945.72;5059932;28;20218;-64
2022/07/25 07:38:00;;;;;;;8.65;8.02;;;;;;;26.74;39.71;94937.91;5026940;28;20229;-65
2022/07/25 07:40:26;;;;;;;9.45;8.55;;;;;;;26.76;39.67;94933.09;5022062;28;20205;-65
2022/07/25 07:42:52;;;;;;;9.05;8.25;;;;;;;26.69;39.64;94939.75;5019216;28;20222;-65
2022/07/25 07:45:22;;;;;;;9.30;8.60;;;;;;;26.74;38.89;94932.50;5021196;28;20256;-65
2022/07/25 07:47:49;;;;;;;8.95;8.15;;;;;;;26.69;39.37;94924.38;5023460;28;20226;-64
2022/07/25 07:50:16;;;;;;;9.35;8.55;;;;;;;26.93;39.43;94934.84;5019395;28;20232;-63
2022/07/25 07:52:47;;;;;;;8.95;8.32;;;;;;;27.01;39.79;94937.06;5025817;28;20211;-63
2022/07/25 07:57:59;;;;;;;8.98;8.18;;;;;;;27.03;38.94;94932.25;5038548;28;20235;-62
2022/07/25 08:00:34;;;;;;;8.90;8.30;;;;;;;27.22;38.47;94930.81;5058391;28;20228;-62
2022/07/25 08:03:00;;;;;;;9.15;8.43;;;;;;;27.23;37.85;94929.72;5042552;28;20227;-63
2022/07/25 08:05:31;;;;;;;8.38;7.72;;;;;;;27.26;36.86;94936.50;5043691;28;20217;-64
2022/07/25 08:07:58;;;;;;;9.50;8.18;;;;;;;27.15;36.97;94927.47;5060248;28;20209;-63
2022/07/25 08:10:27;;;;;;;8.77;8.05;;;;;;;27.20;36.38;94930.25;5058449;28;20229;-64
2022/07/25 08:12:52;;;;;;;9.02;8.15;;;;;;;27.28;36.09;94931.66;5023000;28;20214;-63
2022/07/25 08:15:19;;;;;;;8.43;7.72;;;;;;;27.36;36.72;94925.78;5020804;28;20225;-66
2022/07/25 08:17:46;;;;;;;8.90;8.10;;;;;;;27.35;36.98;94926.84;5014223;28;20222;-63
2022/07/25 08:20:12;;;;;;;8.57;7.93;;;;;;;27.49;36.42;94933.44;5020102;28;20205;-64
2022/07/25 08:22:43;;;;;;;8.38;7.63;;;;;;;27.63;36.40;94928.38;5023744;28;20202;-64
2022/07/25 08:25:12;;;;;;;8.77;8.00;;;;;;;27.73;36.46;94930.34;5043291;28;20248;-63
2022/07/25 08:27:38;;;;;;;9.60;8.70;;;;;;;27.66;36.16;94930.56;5028715;28;20240;-65
2022/07/25 08:30:05;;;;;;;9.73;8.73;;;;;;;27.66;36.31;94935.16;5021703;28;20217;-65
2022/07/25 08:32:31;;;;;;;8.63;7.93;;;;;;;27.71;36.22;94927.06;5021010;28;20561;-65
2022/07/25 08:34:56;;;;;;;8.73;7.93;;;;;;;27.82;36.12;94925.28;5022464;28;20209;-64
2022/07/25 08:37:22;;;;;;;8.20;7.50;;;;;;;27.73;35.48;94918.72;5023451;28;20240;-64
2022/07/25 08:39:50;;;;;;;8.68;7.88;;;;;;;27.58;35.69;94927.53;5021970;28;20237;-63
2022/07/25 08:42:17;;;;;;;8.65;8.05;;;;;;;27.60;35.95;94931.59;5018696;28;20217;-67
2022/07/25 08:44:49;;;;;;;9.15;8.35;;;;;;;27.71;35.90;94924.38;5027098;28;20218;-67
2022/07/25 08:47:15;;;;;;;8.68;7.97;;;;;;;27.86;35.83;94923.69;5057378;28;20240;-65
2022/07/25 08:49:40;;;;;;;9.07;8.05;;;;;;;27.92;35.59;94928.03;5022138;28;20210;-65
2022/07/25 08:52:07;;;;;;;9.07;8.27;;;;;;;28.15;34.66;94926.81;5022999;28;20233;-64
2022/07/25 08:54:34;;;;;;;9.43;8.30;;;;;;;28.25;34.48;94913.28;5032974;28;20303;-65
2022/07/25 08:56:59;;;;;;;8.43;7.70;;;;;;;28.23;34.48;94917.34;5026935;28;20324;-64
2022/07/25 08:59:25;;;;;;;8.77;8.07;;;;;;;28.25;34.09;94915.19;5037514;28;20236;-64
2022/07/25 09:01:50;;;;;;;8.57;7.97;;;;;;;28.30;34.92;94918.72;5025190;28;20214;-64
2022/07/25 09:04:16;;;;;;;9.40;8.50;;;;;;;28.45;34.96;94920.72;5055488;28;20217;-63
2022/07/25 09:06:51;;;;;;;9.50;8.32;;;;;;;28.29;34.36;94924.41;5020190;28;20218;-64
2022/07/25 09:09:17;;;;;;;9.68;8.75;;;;;;;28.15;35.46;94919.50;5050072;28;20256;-63
2022/07/25 09:11:42;;;;;;;8.43;7.72;;;;;;;28.22;34.58;94913.03;5025335;28;20211;-64
2022/07/25 09:14:12;;;;;;;9.43;8.63;;;;;;;28.24;34.76;94908.16;5036623;28;20193;-64
2022/07/25 09:16:42;;;;;;;8.85;8.15;;;;;;;28.25;35.19;94916.00;5036749;28;20198;-63
2022/07/25 09:19:13;;;;;;;9.05;8.13;;;;;;;28.15;35.52;94907.88;5025368;28;20705;-68
2022/07/25 09:21:41;;;;;;;8.10;7.40;;;;;;;28.12;35.59;94900.28;5052244;28;20284;-62
2022/07/25 09:24:08;;;;;;;8.38;7.68;;;;;;;28.22;35.48;94900.31;5022902;28;20226;-68
2022/07/25 09:26:46;;;;;;;10.27;7.75;;;;;;;28.27;34.50;94903.03;5020334;28;20228;-64
2022/07/25 09:29:27;;;;;;;8.23;7.47;;;;;;;28.38;34.88;94910.09;5030133;28;20233;-67
2022/07/25 09:31:55;;;;;;;8.65;7.95;;;;;;;28.51;34.14;94899.91;5022169;28;20236;-67
2022/07/25 09:34:35;;;;;;;8.52;7.80;;;;;;;28.65;34.59;94895.56;5039144;28;20236;-63
2022/07/25 09:37:04;;;;;;;8.98;8.07;;;;;;;28.80;34.15;94890.19;5044102;28;20229;-64
2022/07/25 09:39:33;;;;;;;9.13;8.43;;;;;;;29.01;33.72;94893.72;5020560;28;20222;-62
2022/07/25 09:41:59;;;;;;;8.30;7.70;;;;;;;28.99;33.66;94897.78;5019057;28;20249;-66
2022/07/25 09:44:29;;;;;;;8.57;7.97;;;;;;;29.14;34.07;94889.69;5017580;28;20307;-63
2022/07/25 09:46:57;;;;;;;9.27;8.40;;;;;;;29.10;33.93;94887.81;5022359;28;20521;-63
2022/07/25 09:49:23;;;;;;;8.48;7.53;;;;;;;29.21;33.58;94898.34;5021506;28;20222;-63
2022/07/25 09:51:49;;;;;;;7.65;7.15;;;;;;;29.32;32.37;94888.31;5041053;28;20221;-65
2022/07/25 09:54:16;;;;;;;8.15;7.53;;;;;;;29.39;33.98;94885.34;5035479;28;20222;-67
2022/07/25 09:56:41;;;;;;;8.35;7.75;;;;;;;29.76;33.42;94874.19;5026946;28;20222;-66
2022/07/25 09:59:07;;;;;;;8.93;8.23;;;;;;;29.78;33.73;94877.44;5023636;28;20205;-62
2022/07/25 10:01:44;;;;;;;8.40;7.75;;;;;;;29.62;32.05;94894.78;5023029;28;20206;-68
2022/07/25 10:04:41;;;;;;;8.45;7.65;;;;;;;29.37;32.63;94887.50;5016855;28;20304;-65
2022/07/25 10:07:19;;;;;;;8.30;7.70;;;;;;;29.51;30.97;94888.59;5015117;28;20258;-63
2022/07/25 10:09:48;;;;;;;7.60;6.93;;;;;;;29.71;30.83;94874.19;5025148;28;20321;-60
2022/07/25 10:12:18;;;;;;;7.53;6.90;;;;;;;30.08;30.39;94886.53;5026194;28;20218;-66
2022/07/25 10:15:03;;;;;;;31.52;26.92;;;;;;;30.28;29.38;94870.19;5026287;28;20292;-65
2022/07/25 10:17:29;;;;;;;17.02;15.23;;;;;;;30.46;29.59;94866.03;5030499;28;20225;-66
2022/07/25 10:19:54;;;;;;;7.80;7.05;;;;;;;30.61;28.74;94872.44;5041823;28;20197;-63
2022/07/25 10:22:20;;;;;;;8.52;7.30;;;;;;;30.66;28.07;94869.69;5022434;28;20218;-68
2022/07/25 10:24:47;;;;;;;8.13;7.43;;;;;;;30.65;28.42;94863.44;5056866;28;20329;-63
2022/07/25 10:27:19;;;;;;;8.20;7.60;;;;;;;30.44;28.27;94857.34;5022621;28;20228;-67
2022/07/25 10:29:51;;;;;;;9.57;8.65;;;;;;;30.26;28.79;94864.25;5035269;28;20264;-65
2022/07/25 10:32:17;;;;;;;8.43;7.72;;;;;;;30.10;30.15;94866.19;5043841;28;20254;-65
2022/07/25 10:34:52;;;;;;;8.32;7.65;;;;;;;30.13;30.67;94856.69;5058257;28;20207;-60
2022/07/25 10:37:19;;;;;;;7.95;7.32;;;;;;;30.11;30.37;94856.97;5024728;28;20223;-61
2022/07/25 10:39:45;;;;;;;8.32;7.63;;;;;;;30.19;30.66;94860.19;5027159;28;20237;-64
2022/07/25 10:42:16;;;;;;;7.50;6.80;;;;;;;30.60;30.65;94863.50;5028707;28;20224;-63
2022/07/25 10:44:47;;;;;;;8.77;8.07;;;;;;;30.69;30.22;94848.25;5046526;28;20217;-62
2022/07/25 10:47:14;;;;;;;7.97;7.30;;;;;;;30.60;29.90;94858.06;5047828;28;20205;-66
2022/07/25 10:49:42;;;;;;;7.72;7.10;;;;;;;30.57;28.98;94850.50;5047893;28;20217;-65
2022/07/25 10:52:14;;;;;;;7.38;6.85;;;;;;;30.69;27.96;94848.25;5048261;28;20237;-66
2022/07/25 10:54:53;;;;;;;7.65;7.05;;;;;;;31.19;28.20;94840.81;5043768;28;20309;-63
2022/07/25 10:57:19;;;;;;;11.63;10.63;;;;;;;31.52;29.38;94843.78;5024434;28;20222;-61
2022/07/25 10:59:45;;;;;;;7.43;6.93;;;;;;;31.45;27.11;94843.28;5030831;28;20251;-60
2022/07/25 11:02:17;;;;;;;8.02;7.43;;;;;;;31.63;26.05;94830.88;5045732;28;20205;-64
2022/07/25 11:04:45;;;;;;;7.75;7.05;;;;;;;31.68;25.97;94835.41;5062726;28;20198;-63
2022/07/25 11:07:16;;;;;;;8.20;7.45;;;;;;;31.79;25.72;94836.94;5026918;28;20568;-65
2022/07/25 11:09:43;;;;;;;6.60;6.10;;;;;;;31.71;25.00;94840.31;5057763;28;21233;-66
2022/07/25 11:12:13;;;;;;;9.48;5.85;;;;;;;31.68;24.81;94836.25;5025333;28;20227;-65
2022/07/25 11:14:46;;;;;;;6.95;6.45;;;;;;;31.83;24.77;94832.53;5026331;28;20222;-65
2022/07/25 11:17:13;;;;;;;6.07;5.63;;;;;;;31.88;23.06;94823.50;5029304;28;20217;-68
2022/07/25 11:19:40;;;;;;;6.82;6.28;;;;;;;32.00;23.99;94832.09;5029123;28;20210;-63
2022/07/25 11:22:12;;;;;;;7.38;6.78;;;;;;;31.97;23.63;94822.63;5027041;28;20222;-66
2022/07/25 11:24:42;;;;;;;6.88;6.38;;;;;;;32.03;24.47;94817.91;5060986;28;20222;-66
2022/07/25 11:27:10;;;;;;;6.82;6.32;;;;;;;31.48;24.57;94820.16;5027051;28;20234;-66